首页
METAR-TAF:

METAR-TAF

机场 :

子午线, 密西西比州, 美国

纬度: 32-32-47N, 经度: 088-32-35W, 海拔: 96米

当前天气观测

该预报发布于50分钟前的13:56 UTC
风速9节,风向
温度 8°C
湿度 76%
气压 1013 hPa
能見度: 16.1公里
多云层高于7500英尺
多云层高于9000英尺
多云层高于11000英尺

METAR: KNMM 291356Z 09009KT 10SM BKN075 BKN090 BKN110 08/04 A2990 RMK AO2 SLP136 T00830039

时间: 08:46 (14:46 UTC)

预报

预报有效从29日的 12点(UTC)到 30日的 07点(UTC)
风速6节,风向
能见度10公里或以上
散云层高于5000英尺
多云层高于7000英尺
多云层高于11000英尺
多云层高于22000英尺
附近有阵雨
短暂存在
从 29日的 14点(UTC)到 29日的 20点(UTC)
能見度: 4800
多云层高于5000英尺
多云层高于7000英尺
阴天层高于11000英尺
雨, 轻雾
从 29日的 2000点(UTC)
风速6节,风向
能见度10公里或以上
散云层高于2000英尺
多云层高于7000英尺
多云层高于20000英尺
从 30日的 0200点(UTC)
风速3节,风向
能见度10公里或以上
散云层高于3500英尺
多云层高于5000英尺
从 30日的 0700点(UTC)
风速4节,风向北转东北
能見度: 1225
天空无云

TAF: KNMM 2912/3007 10006KT 9999 VCSH SCT050 BKN070 BKN110 BKN220 650707 551809 532707 QNH2990INS TEMPO 2914/2920 4800 RA BR BKN050 BKN070 OVC110 FM292000 10006KT 9999 SCT020 BKN070 BKN200 620707 551809 532707 QNH2990INS FM300200 08003KT 9999 SCT035 BKN050 600000 500000 QNH3001INS FM300700 03004KT 9999 SKC QNH3004INS T12/2921Z T06/3007Z AMD 1225 FN20035

超过4000个机场的气象观测和天气预报(METAR&TAF报告)。

可查询的气象台以黄色和红色小点在地图上表示。

将鼠标移到小点上方,可查看气象台名称。

然后点击查看天气观测和预报。

如需切换地图:点击带黑十字的绿色按钮放大地图;点击带横线的绿色按钮缩小地图;或者点击绿色箭头查看邻近地区的地图。


METAR-TAF: